sensor_id;sensor_type;location;lat;lon;timestamp;pressure;altitude;pressure_sealevel;temperature;humidity
49801;BME280;35698;50.232;30.540;2023-04-29T00:00:36;100588.50;;;9.23;47.76
49801;BME280;35698;50.232;30.540;2023-04-29T00:01:57;100587.16;;;9.33;48.46
49801;BME280;35698;50.232;30.540;2023-04-29T00:03:28;100596.23;;;9.63;49.76
49801;BME280;35698;50.232;30.540;2023-04-29T00:04:32;100591.50;;;9.52;48.69
49801;BME280;35698;50.232;30.540;2023-04-29T00:05:36;100594.89;;;9.54;49.54
49801;BME280;35698;50.232;30.540;2023-04-29T00:06:57;100599.16;;;9.57;49.53
49801;BME280;35698;50.232;30.540;2023-04-29T00:08:48;100595.23;;;9.66;49.56
49801;BME280;35698;50.232;30.540;2023-04-29T00:09:51;100587.66;;;9.41;49.50
49801;BME280;35698;50.232;30.540;2023-04-29T00:11:24;100592.64;;;9.47;49.82
49801;BME280;35698;50.232;30.540;2023-04-29T00:12:27;100591.71;;;9.29;49.97
49801;BME280;35698;50.232;30.540;2023-04-29T00:24:36;100579.17;;;9.34;49.02
49801;BME280;35698;50.232;30.540;2023-04-29T00:25:39;100573.90;;;9.15;48.43
49801;BME280;35698;50.232;30.540;2023-04-29T00:27:02;100575.47;;;9.38;49.13
49801;BME280;35698;50.232;30.540;2023-04-29T00:28:07;100572.63;;;9.24;49.24
49801;BME280;35698;50.232;30.540;2023-04-29T00:29:16;100575.19;;;9.26;48.31
49801;BME280;35698;50.232;30.540;2023-04-29T00:30:25;100569.48;;;9.35;49.10
49801;BME280;35698;50.232;30.540;2023-04-29T00:31:46;100576.25;;;9.40;48.04
49801;BME280;35698;50.232;30.540;2023-04-29T00:32:55;100577.11;;;9.41;48.52
49801;BME280;35698;50.232;30.540;2023-04-29T00:34:02;100584.59;;;9.50;48.72
49801;BME280;35698;50.232;30.540;2023-04-29T00:35:11;100586.44;;;9.48;49.06
49801;BME280;35698;50.232;30.540;2023-04-29T00:36:20;100582.31;;;9.42;48.80
49801;BME280;35698;50.232;30.540;2023-04-29T00:37:29;100576.67;;;9.50;49.13
49801;BME280;35698;50.232;30.540;2023-04-29T00:38:34;100582.09;;;9.47;49.45
49801;BME280;35698;50.232;30.540;2023-04-29T00:40:10;100580.26;;;9.66;48.83
49801;BME280;35698;50.232;30.540;2023-04-29T00:41:14;100579.45;;;9.47;48.60
49801;BME280;35698;50.232;30.540;2023-04-29T00:42:17;100586.02;;;9.38;48.65
49801;BME280;35698;50.232;30.540;2023-04-29T00:43:38;100583.59;;;9.34;49.32
49801;BME280;35698;50.232;30.540;2023-04-29T00:44:58;100578.59;;;9.46;49.82
49801;BME280;35698;50.232;30.540;2023-04-29T00:46:03;100584.66;;;9.30;49.77
49801;BME280;35698;50.232;30.540;2023-04-29T00:47:06;100592.34;;;9.15;48.82
49801;BME280;35698;50.232;30.540;2023-04-29T00:48:31;100590.79;;;9.30;49.68
49801;BME280;35698;50.232;30.540;2023-04-29T00:49:34;100584.80;;;9.27;49.13
49801;BME280;35698;50.232;30.540;2023-04-29T00:50:48;100585.80;;;9.43;49.84
49801;BME280;35698;50.232;30.540;2023-04-29T00:51:53;100591.27;;;9.01;48.71
49801;BME280;35698;50.232;30.540;2023-04-29T00:52:58;100595.40;;;9.06;49.30
49801;BME280;35698;50.232;30.540;2023-04-29T00:54:20;100592.70;;;9.08;49.92
49801;BME280;35698;50.232;30.540;2023-04-29T00:55:32;100590.98;;;9.07;49.85
49801;BME280;35698;50.232;30.540;2023-04-29T00:56:36;100587.49;;;9.06;49.81
49801;BME280;35698;50.232;30.540;2023-04-29T00:57:49;100597.20;;;9.25;49.49
49801;BME280;35698;50.232;30.540;2023-04-29T00:58:53;100592.00;;;9.23;49.96
49801;BME280;35698;50.232;30.540;2023-04-29T01:00:06;100595.84;;;9.16;49.36
49801;BME280;35698;50.232;30.540;2023-04-29T01:01:09;100596.91;;;9.12;50.33
49801;BME280;35698;50.232;30.540;2023-04-29T01:02:20;100593.36;;;9.32;50.08
49801;BME280;35698;50.232;30.540;2023-04-29T01:03:24;100594.28;;;9.31;49.98
49801;BME280;35698;50.232;30.540;2023-04-29T01:04:27;100593.70;;;9.24;49.49
49801;BME280;35698;50.232;30.540;2023-04-29T01:05:53;100588.16;;;9.30;49.67
49801;BME280;35698;50.232;30.540;2023-04-29T01:07:17;100590.77;;;9.11;49.29
49801;BME280;35698;50.232;30.540;2023-04-29T01:08:33;100591.95;;;8.85;49.24
49801;BME280;35698;50.232;30.540;2023-04-29T01:13:05;100587.63;;;9.03;49.41
49801;BME280;35698;50.232;30.540;2023-04-29T01:17:10;100598.10;;;9.05;49.06
49801;BME280;35698;50.232;30.540;2023-04-29T01:18:34;100590.61;;;8.96;49.41
49801;BME280;35698;50.232;30.540;2023-04-29T01:19:48;100598.47;;;9.16;49.50
49801;BME280;35698;50.232;30.540;2023-04-29T01:20:52;100592.39;;;8.95;49.58
49801;BME280;35698;50.232;30.540;2023-04-29T01:21:56;100596.39;;;9.04;50.05
49801;BME280;35698;50.232;30.540;2023-04-29T01:23:17;100591.40;;;8.98;49.45
49801;BME280;35698;50.232;30.540;2023-04-29T01:24:21;100593.86;;;8.82;49.21
49801;BME280;35698;50.232;30.540;2023-04-29T01:25:37;100598.41;;;9.17;49.85
49801;BME280;35698;50.232;30.540;2023-04-29T01:26:48;100601.53;;;9.07;50.37
49801;BME280;35698;50.232;30.540;2023-04-29T01:31:24;100604.16;;;9.07;50.39
49801;BME280;35698;50.232;30.540;2023-04-29T01:45:16;100608.95;;;8.78;51.21
49801;BME280;35698;50.232;30.540;2023-04-29T01:46:20;100614.05;;;8.63;51.48
49801;BME280;35698;50.232;30.540;2023-04-29T01:47:42;100620.23;;;8.41;50.63
49801;BME280;35698;50.232;30.540;2023-04-29T01:49:06;100621.39;;;8.75;50.91
49801;BME280;35698;50.232;30.540;2023-04-29T01:50:10;100622.09;;;8.60;50.79
49801;BME280;35698;50.232;30.540;2023-04-29T01:51:36;100619.02;;;8.69;50.78
49801;BME280;35698;50.232;30.540;2023-04-29T01:53:14;100624.09;;;8.73;50.61
49801;BME280;35698;50.232;30.540;2023-04-29T01:54:17;100626.80;;;8.72;50.46
49801;BME280;35698;50.232;30.540;2023-04-29T01:55:21;100626.07;;;8.68;51.10
49801;BME280;35698;50.232;30.540;2023-04-29T01:56:42;100631.08;;;8.74;51.18
49801;BME280;35698;50.232;30.540;2023-04-29T01:57:57;100630.19;;;8.55;50.63
49801;BME280;35698;50.232;30.540;2023-04-29T01:59:01;100625.05;;;8.52;51.12
49801;BME280;35698;50.232;30.540;2023-04-29T02:00:05;100624.70;;;8.39;51.06
49801;BME280;35698;50.232;30.540;2023-04-29T02:01:26;100628.32;;;8.15;50.97
49801;BME280;35698;50.232;30.540;2023-04-29T02:02:29;100631.96;;;8.54;51.52
49801;BME280;35698;50.232;30.540;2023-04-29T02:03:33;100628.14;;;8.62;51.29
49801;BME280;35698;50.232;30.540;2023-04-29T02:04:44;100629.59;;;8.48;50.79
49801;BME280;35698;50.232;30.540;2023-04-29T02:05:47;100632.88;;;8.53;50.90
49801;BME280;35698;50.232;30.540;2023-04-29T02:06:50;100636.90;;;8.62;50.99
49801;BME280;35698;50.232;30.540;2023-04-29T02:08:12;100633.39;;;8.41;50.53
49801;BME280;35698;50.232;30.540;2023-04-29T02:09:23;100628.13;;;8.19;51.11
49801;BME280;35698;50.232;30.540;2023-04-29T02:10:29;100634.13;;;8.45;51.35
49801;BME280;35698;50.232;30.540;2023-04-29T02:11:46;100624.45;;;8.66;50.86
49801;BME280;35698;50.232;30.540;2023-04-29T02:12:50;100624.98;;;8.53;51.18
49801;BME280;35698;50.232;30.540;2023-04-29T02:13:53;100628.60;;;8.51;51.31
49801;BME280;35698;50.232;30.540;2023-04-29T02:15:14;100629.79;;;8.64;51.15
49801;BME280;35698;50.232;30.540;2023-04-29T02:16:26;100622.14;;;8.38;50.87
49801;BME280;35698;50.232;30.540;2023-04-29T02:17:29;100627.55;;;8.55;50.82
49801;BME280;35698;50.232;30.540;2023-04-29T02:18:41;100628.50;;;8.73;51.06
49801;BME280;35698;50.232;30.540;2023-04-29T02:19:44;100635.75;;;8.68;51.31
49801;BME280;35698;50.232;30.540;2023-04-29T02:21:00;100632.88;;;8.53;50.70
49801;BME280;35698;50.232;30.540;2023-04-29T02:22:04;100633.66;;;8.35;50.83
49801;BME280;35698;50.232;30.540;2023-04-29T02:23:25;100634.73;;;8.30;51.01
49801;BME280;35698;50.232;30.540;2023-04-29T02:24:47;100637.61;;;8.45;50.83
49801;BME280;35698;50.232;30.540;2023-04-29T02:25:58;100637.09;;;8.58;50.79
49801;BME280;35698;50.232;30.540;2023-04-29T02:27:02;100635.78;;;8.26;51.03
49801;BME280;35698;50.232;30.540;2023-04-29T02:28:24;100639.27;;;8.48;51.15
49801;BME280;35698;50.232;30.540;2023-04-29T02:29:45;100643.86;;;8.43;51.13
49801;BME280;35698;50.232;30.540;2023-04-29T02:30:48;100639.27;;;8.48;51.32
49801;BME280;35698;50.232;30.540;2023-04-29T02:32:00;100643.87;;;8.63;51.83
49801;BME280;35698;50.232;30.540;2023-04-29T02:33:03;100641.70;;;8.52;51.82
49801;BME280;35698;50.232;30.540;2023-04-29T02:34:25;100642.55;;;8.53;51.85
49801;BME280;35698;50.232;30.540;2023-04-29T02:35:46;100644.72;;;8.43;51.67
49801;BME280;35698;50.232;30.540;2023-04-29T02:36:58;100637.76;;;8.63;51.63
49801;BME280;35698;50.232;30.540;2023-04-29T02:38:01;100634.64;;;8.33;51.42
49801;BME280;35698;50.232;30.540;2023-04-29T02:39:22;100641.17;;;8.22;51.69
49801;BME280;35698;50.232;30.540;2023-04-29T02:40:45;100650.91;;;8.42;51.86
49801;BME280;35698;50.232;30.540;2023-04-29T02:41:56;100641.57;;;8.56;51.75
49801;BME280;35698;50.232;30.540;2023-04-29T02:42:59;100645.32;;;8.50;52.00
49801;BME280;35698;50.232;30.540;2023-04-29T02:44:21;100646.50;;;8.43;51.31
49801;BME280;35698;50.232;30.540;2023-04-29T02:45:42;100646.97;;;8.52;51.90
49801;BME280;35698;50.232;30.540;2023-04-29T02:46:54;100646.58;;;8.62;51.79
49801;BME280;35698;50.232;30.540;2023-04-29T02:47:57;100648.08;;;8.47;51.92
49801;BME280;35698;50.232;30.540;2023-04-29T02:49:19;100650.65;;;8.48;51.96
49801;BME280;35698;50.232;30.540;2023-04-29T02:50:40;100646.56;;;8.41;51.92
49801;BME280;35698;50.232;30.540;2023-04-29T02:51:43;100653.95;;;8.53;52.05
49801;BME280;35698;50.232;30.540;2023-04-29T02:52:49;100657.50;;;8.52;52.00
49801;BME280;35698;50.232;30.540;2023-04-29T02:53:53;100658.09;;;8.59;51.89
49801;BME280;35698;50.232;30.540;2023-04-29T02:54:56;100666.92;;;8.58;52.06
49801;BME280;35698;50.232;30.540;2023-04-29T02:56:07;100661.33;;;8.66;52.10
49801;BME280;35698;50.232;30.540;2023-04-29T02:57:10;100668.86;;;8.33;52.17
49801;BME280;35698;50.232;30.540;2023-04-29T02:58:14;100664.48;;;8.53;52.08
49801;BME280;35698;50.232;30.540;2023-04-29T02:59:35;100667.30;;;8.49;52.34
49801;BME280;35698;50.232;30.540;2023-04-29T03:00:46;100665.64;;;8.67;52.37
49801;BME280;35698;50.232;30.540;2023-04-29T03:01:49;100662.51;;;8.59;51.92
49801;BME280;35698;50.232;30.540;2023-04-29T03:03:00;100669.86;;;8.71;52.12
49801;BME280;35698;50.232;30.540;2023-04-29T03:04:04;100670.09;;;8.66;52.10
49801;BME280;35698;50.232;30.540;2023-04-29T03:05:08;100669.23;;;8.66;51.98
49801;BME280;35698;50.232;30.540;2023-04-29T03:06:30;100672.13;;;8.60;51.82
49801;BME280;35698;50.232;30.540;2023-04-29T03:07:41;100677.98;;;8.66;52.26
49801;BME280;35698;50.232;30.540;2023-04-29T03:08:44;100681.92;;;8.56;52.37
49801;BME280;35698;50.232;30.540;2023-04-29T03:09:55;100680.33;;;8.72;52.17
49801;BME280;35698;50.232;30.540;2023-04-29T03:10:58;100678.11;;;8.63;52.08
49801;BME280;35698;50.232;30.540;2023-04-29T03:12:01;100685.61;;;8.52;52.18
49801;BME280;35698;50.232;30.540;2023-04-29T03:13:22;100687.52;;;8.48;52.37
49801;BME280;35698;50.232;30.540;2023-04-29T03:14:43;100682.78;;;8.57;52.27
49801;BME280;35698;50.232;30.540;2023-04-29T03:15:46;100687.52;;;8.48;52.47
49801;BME280;35698;50.232;30.540;2023-04-29T03:16:49;100686.05;;;8.41;52.52
49801;BME280;35698;50.232;30.540;2023-04-29T03:18:11;100676.38;;;8.42;52.61
49801;BME280;35698;50.232;30.540;2023-04-29T03:19:14;100685.80;;;8.47;52.58
49801;BME280;35698;50.232;30.540;2023-04-29T03:20:25;100688.23;;;8.52;52.60
49801;BME280;35698;50.232;30.540;2023-04-29T03:21:28;100685.73;;;8.49;52.65
49801;BME280;35698;50.232;30.540;2023-04-29T03:22:31;100694.11;;;8.59;52.39
49801;BME280;35698;50.232;30.540;2023-04-29T03:23:53;100687.92;;;8.60;52.38
49801;BME280;35698;50.232;30.540;2023-04-29T03:25:04;100691.72;;;8.73;52.28
49801;BME280;35698;50.232;30.540;2023-04-29T03:26:08;100696.55;;;8.63;52.58
49801;BME280;35698;50.232;30.540;2023-04-29T03:27:19;100695.41;;;8.89;52.34
49801;BME280;35698;50.232;30.540;2023-04-29T03:28:23;100696.86;;;8.76;52.33
49801;BME280;35698;50.232;30.540;2023-04-29T03:29:30;100697.45;;;8.82;52.16
49801;BME280;35698;50.232;30.540;2023-04-29T03:30:51;100699.83;;;8.88;52.05
49801;BME280;35698;50.232;30.540;2023-04-29T03:31:54;100698.84;;;8.91;52.07
49801;BME280;35698;50.232;30.540;2023-04-29T03:32:57;100701.34;;;8.94;52.21
49801;BME280;35698;50.232;30.540;2023-04-29T03:34:09;100702.26;;;9.13;51.97
49801;BME280;35698;50.232;30.540;2023-04-29T03:35:12;100707.41;;;8.96;52.11
49801;BME280;35698;50.232;30.540;2023-04-29T03:36:17;100702.66;;;9.04;52.13
49801;BME280;35698;50.232;30.540;2023-04-29T03:37:39;100707.34;;;8.98;51.58
49801;BME280;35698;50.232;30.540;2023-04-29T03:38:46;100707.27;;;9.19;51.56
49801;BME280;35698;50.232;30.540;2023-04-29T03:39:49;100711.20;;;9.30;51.40
49801;BME280;35698;50.232;30.540;2023-04-29T03:40:52;100710.48;;;9.26;51.25
49801;BME280;35698;50.232;30.540;2023-04-29T03:42:04;100706.31;;;9.41;51.31
49801;BME280;35698;50.232;30.540;2023-04-29T03:43:07;100712.58;;;9.38;51.41
49801;BME280;35698;50.232;30.540;2023-04-29T03:44:18;100709.39;;;9.50;51.42
49801;BME280;35698;50.232;30.540;2023-04-29T03:45:21;100713.16;;;9.45;51.02
49801;BME280;35698;50.232;30.540;2023-04-29T03:46:26;100711.95;;;9.52;51.15
49801;BME280;35698;50.232;30.540;2023-04-29T03:47:47;100709.66;;;9.44;50.96
49801;BME280;35698;50.232;30.540;2023-04-29T03:48:58;100716.44;;;9.69;51.16
49801;BME280;35698;50.232;30.540;2023-04-29T03:50:02;100712.30;;;9.63;51.05
49801;BME280;35698;50.232;30.540;2023-04-29T03:51:20;100717.65;;;9.80;50.78
49801;BME280;35698;50.232;30.540;2023-04-29T03:52:23;100719.64;;;9.75;50.95
49801;BME280;35698;50.232;30.540;2023-04-29T03:53:26;100715.22;;;9.95;50.40
49801;BME280;35698;50.232;30.540;2023-04-29T03:54:48;100719.58;;;9.96;50.42
49801;BME280;35698;50.232;30.540;2023-04-29T03:55:54;100714.08;;;10.00;50.45
49801;BME280;35698;50.232;30.540;2023-04-29T03:57:05;100718.70;;;10.14;50.63
49801;BME280;35698;50.232;30.540;2023-04-29T03:58:09;100716.92;;;10.14;50.17
49801;BME280;35698;50.232;30.540;2023-04-29T03:59:20;100715.30;;;10.31;49.97
49801;BME280;35698;50.232;30.540;2023-04-29T04:00:24;100722.84;;;10.38;50.07
49801;BME280;35698;50.232;30.540;2023-04-29T04:01:27;100715.67;;;10.40;49.84
49801;BME280;35698;50.232;30.540;2023-04-29T04:02:48;100726.00;;;10.28;49.81
49801;BME280;35698;50.232;30.540;2023-04-29T04:03:52;100723.84;;;10.53;49.78
49801;BME280;35698;50.232;30.540;2023-04-29T04:05:03;100716.64;;;10.74;49.30
49801;BME280;35698;50.232;30.540;2023-04-29T04:06:07;100726.89;;;10.63;49.30
49801;BME280;35698;50.232;30.540;2023-04-29T04:07:10;100717.50;;;10.92;49.12
49801;BME280;35698;50.232;30.540;2023-04-29T04:08:31;100708.70;;;11.08;48.79
49801;BME280;35698;50.232;30.540;2023-04-29T04:09:34;100717.41;;;11.10;48.60
49801;BME280;35698;50.232;30.540;2023-04-29T04:10:56;100721.53;;;11.16;48.33
49801;BME280;35698;50.232;30.540;2023-04-29T04:12:07;100720.22;;;11.40;48.02
49801;BME280;35698;50.232;30.540;2023-04-29T04:13:11;100717.81;;;11.36;48.08
49801;BME280;35698;50.232;30.540;2023-04-29T04:14:14;100721.67;;;11.46;48.09
49801;BME280;35698;50.232;30.540;2023-04-29T04:15:35;100722.63;;;11.78;47.75
49801;BME280;35698;50.232;30.540;2023-04-29T04:16:38;100728.03;;;11.59;47.72
49801;BME280;35698;50.232;30.540;2023-04-29T04:18:00;100724.11;;;11.66;47.73
49801;BME280;35698;50.232;30.540;2023-04-29T04:19:03;100713.67;;;11.80;47.33
49801;BME280;35698;50.232;30.540;2023-04-29T04:20:15;100718.13;;;11.96;47.23
49801;BME280;35698;50.232;30.540;2023-04-29T04:21:18;100719.31;;;11.90;47.21
49801;BME280;35698;50.232;30.540;2023-04-29T04:22:29;100713.85;;;12.09;47.58
49801;BME280;35698;50.232;30.540;2023-04-29T04:23:33;100722.05;;;12.04;47.15
49801;BME280;35698;50.232;30.540;2023-04-29T04:24:44;100731.63;;;12.07;47.06
49801;BME280;35698;50.232;30.540;2023-04-29T04:25:48;100723.22;;;12.14;46.96
49801;BME280;35698;50.232;30.540;2023-04-29T04:27:12;100725.27;;;12.25;46.78
49801;BME280;35698;50.232;30.540;2023-04-29T04:28:33;100722.78;;;12.38;46.86
49801;BME280;35698;50.232;30.540;2023-04-29T04:29:37;100723.55;;;12.40;46.27
49801;BME280;35698;50.232;30.540;2023-04-29T04:30:58;100727.29;;;12.52;46.14
49801;BME280;35698;50.232;30.540;2023-04-29T04:32:09;100718.09;;;12.73;46.15
49801;BME280;35698;50.232;30.540;2023-04-29T04:33:13;100724.52;;;12.69;46.25
49801;BME280;35698;50.232;30.540;2023-04-29T04:34:34;100720.39;;;12.79;46.08
49801;BME280;35698;50.232;30.540;2023-04-29T04:35:55;100719.36;;;12.82;45.87
49801;BME280;35698;50.232;30.540;2023-04-29T04:37:07;100721.47;;;13.05;45.79
49801;BME280;35698;50.232;30.540;2023-04-29T04:38:10;100720.80;;;13.01;45.83
49801;BME280;35698;50.232;30.540;2023-04-29T04:39:31;100718.05;;;12.89;44.89
49801;BME280;35698;50.232;30.540;2023-04-29T04:40:53;100719.09;;;13.00;44.92
49801;BME280;35698;50.232;30.540;2023-04-29T04:42:14;100724.97;;;13.05;45.03
49801;BME280;35698;50.232;30.540;2023-04-29T04:43:26;100720.97;;;13.28;45.26
49801;BME280;35698;50.232;30.540;2023-04-29T04:44:29;100727.93;;;13.15;45.00
49801;BME280;35698;50.232;30.540;2023-04-29T04:45:50;100728.08;;;13.28;44.63
49801;BME280;35698;50.232;30.540;2023-04-29T04:47:12;100726.07;;;13.17;44.85
49801;BME280;35698;50.232;30.540;2023-04-29T04:48:33;100727.91;;;13.45;44.07
49801;BME280;35698;50.232;30.540;2023-04-29T04:49:36;100727.81;;;13.61;44.36
49801;BME280;35698;50.232;30.540;2023-04-29T04:50:40;100727.34;;;13.68;44.09
49801;BME280;35698;50.232;30.540;2023-04-29T04:51:43;100725.43;;;13.85;44.20
49801;BME280;35698;50.232;30.540;2023-04-29T04:52:46;100728.80;;;14.01;44.02
49801;BME280;35698;50.232;30.540;2023-04-29T04:53:58;100721.05;;;14.25;43.96
49801;BME280;35698;50.232;30.540;2023-04-29T04:55:01;100725.52;;;14.24;44.15
49801;BME280;35698;50.232;30.540;2023-04-29T04:56:12;100723.85;;;14.50;43.96
49801;BME280;35698;50.232;30.540;2023-04-29T04:57:16;100729.57;;;14.44;43.27
49801;BME280;35698;50.232;30.540;2023-04-29T04:58:27;100726.36;;;14.66;43.16
49801;BME280;35698;50.232;30.540;2023-04-29T04:59:30;100731.53;;;14.55;43.15
49801;BME280;35698;50.232;30.540;2023-04-29T05:00:45;100727.00;;;14.69;41.81
49801;BME280;35698;50.232;30.540;2023-04-29T05:01:49;100717.32;;;14.68;42.57
49801;BME280;35698;50.232;30.540;2023-04-29T05:02:52;100726.05;;;14.70;42.24
49801;BME280;35698;50.232;30.540;2023-04-29T05:04:13;100726.45;;;14.77;42.40
49801;BME280;35698;50.232;30.540;2023-04-29T05:05:34;100728.70;;;14.83;41.53
49801;BME280;35698;50.232;30.540;2023-04-29T05:06:46;100719.57;;;14.87;40.72
49801;BME280;35698;50.232;30.540;2023-04-29T05:07:49;100718.17;;;14.82;40.87
49801;BME280;35698;50.232;30.540;2023-04-29T05:09:00;100723.73;;;14.91;39.99
49801;BME280;35698;50.232;30.540;2023-04-29T05:10:04;100722.13;;;14.89;40.23
49801;BME280;35698;50.232;30.540;2023-04-29T05:11:19;100717.47;;;15.05;40.58
49801;BME280;35698;50.232;30.540;2023-04-29T05:12:23;100724.91;;;15.00;40.45
49801;BME280;35698;50.232;30.540;2023-04-29T05:13:34;100718.34;;;15.18;40.71
49801;BME280;35698;50.232;30.540;2023-04-29T05:14:37;100718.76;;;15.12;40.82
49801;BME280;35698;50.232;30.540;2023-04-29T05:15:49;100719.84;;;15.35;41.08
49801;BME280;35698;50.232;30.540;2023-04-29T05:16:52;100718.34;;;15.31;40.99
49801;BME280;35698;50.232;30.540;2023-04-29T05:18:10;100720.68;;;15.61;39.58
49801;BME280;35698;50.232;30.540;2023-04-29T05:19:14;100726.44;;;15.55;39.04
49801;BME280;35698;50.232;30.540;2023-04-29T05:20:17;100721.86;;;15.44;38.10
49801;BME280;35698;50.232;30.540;2023-04-29T05:21:39;100721.22;;;15.53;38.49
49801;BME280;35698;50.232;30.540;2023-04-29T05:22:42;100720.27;;;15.41;37.64
49801;BME280;35698;50.232;30.540;2023-04-29T05:23:53;100718.02;;;15.48;37.47
49801;BME280;35698;50.232;30.540;2023-04-29T05:24:56;100714.51;;;15.22;36.95
49801;BME280;35698;50.232;30.540;2023-04-29T05:26:08;100719.09;;;15.46;37.62
49801;BME280;35698;50.232;30.540;2023-04-29T05:27:11;100721.01;;;15.44;37.47
49801;BME280;35698;50.232;30.540;2023-04-29T05:28:22;100725.68;;;15.65;37.36
49801;BME280;35698;50.232;30.540;2023-04-29T05:29:25;100725.16;;;15.60;36.84
49801;BME280;35698;50.232;30.540;2023-04-29T05:30:28;100720.47;;;15.51;35.62
49801;BME280;35698;50.232;30.540;2023-04-29T05:31:49;100722.81;;;15.56;36.37
49801;BME280;35698;50.232;30.540;2023-04-29T05:33:07;100720.03;;;15.70;36.03
49801;BME280;35698;50.232;30.540;2023-04-29T05:34:10;100724.44;;;15.58;35.92
49801;BME280;35698;50.232;30.540;2023-04-29T05:35:23;100726.52;;;15.79;35.48
49801;BME280;35698;50.232;30.540;2023-04-29T05:36:27;100722.27;;;15.76;36.05
49801;BME280;35698;50.232;30.540;2023-04-29T05:37:38;100721.91;;;15.93;35.73
49801;BME280;35698;50.232;30.540;2023-04-29T05:38:41;100717.12;;;15.86;36.13
49801;BME280;35698;50.232;30.540;2023-04-29T05:39:53;100719.44;;;16.03;35.30
49801;BME280;35698;50.232;30.540;2023-04-29T05:40:57;100723.47;;;16.09;35.58
49801;BME280;35698;50.232;30.540;2023-04-29T05:42:08;100723.88;;;16.15;35.27
49801;BME280;35698;50.232;30.540;2023-04-29T05:43:11;100717.36;;;16.19;35.60
49801;BME280;35698;50.232;30.540;2023-04-29T05:44:22;100721.91;;;16.30;35.66
49801;BME280;35698;50.232;30.540;2023-04-29T05:45:26;100718.66;;;16.14;34.69
49801;BME280;35698;50.232;30.540;2023-04-29T05:46:29;100723.32;;;16.23;35.00
49801;BME280;35698;50.232;30.540;2023-04-29T05:47:50;100723.84;;;16.28;33.79
49801;BME280;35698;50.232;30.540;2023-04-29T05:48:53;100719.98;;;16.32;34.42
49801;BME280;35698;50.232;30.540;2023-04-29T05:49:57;100720.72;;;16.34;33.05
49801;BME280;35698;50.232;30.540;2023-04-29T05:51:00;100715.84;;;16.28;32.73
49801;BME280;35698;50.232;30.540;2023-04-29T05:52:12;100721.37;;;16.49;33.60
49801;BME280;35698;50.232;30.540;2023-04-29T05:53:15;100728.41;;;16.50;34.41
49801;BME280;35698;50.232;30.540;2023-04-29T05:54:32;100717.88;;;16.72;34.17
49801;BME280;35698;50.232;30.540;2023-04-29T05:55:36;100727.81;;;16.70;34.12
49801;BME280;35698;50.232;30.540;2023-04-29T05:56:39;100727.44;;;16.51;32.54
49801;BME280;35698;50.232;30.540;2023-04-29T05:58:00;100722.00;;;16.52;33.45
49801;BME280;35698;50.232;30.540;2023-04-29T05:59:04;100723.87;;;16.63;32.91
49801;BME280;35698;50.232;30.540;2023-04-29T06:00:07;100722.91;;;16.88;32.81
49801;BME280;35698;50.232;30.540;2023-04-29T06:01:19;100712.85;;;16.91;32.87
49801;BME280;35698;50.232;30.540;2023-04-29T06:02:22;100720.36;;;16.86;33.21
49801;BME280;35698;50.232;30.540;2023-04-29T06:03:25;100720.23;;;16.88;32.77
49801;BME280;35698;50.232;30.540;2023-04-29T06:04:46;100720.01;;;16.91;33.01
49801;BME280;35698;50.232;30.540;2023-04-29T06:05:50;100730.09;;;16.98;33.42
49801;BME280;35698;50.232;30.540;2023-04-29T06:07:02;100713.53;;;17.17;32.92
49801;BME280;35698;50.232;30.540;2023-04-29T06:08:05;100732.06;;;17.08;32.89
49801;BME280;35698;50.232;30.540;2023-04-29T06:09:08;100718.98;;;17.16;32.99
49801;BME280;35698;50.232;30.540;2023-04-29T06:10:30;100723.85;;;17.22;32.54
49801;BME280;35698;50.232;30.540;2023-04-29T06:11:33;100720.69;;;17.17;32.40
49801;BME280;35698;50.232;30.540;2023-04-29T06:12:39;100723.59;;;17.14;31.97
49801;BME280;35698;50.232;30.540;2023-04-29T06:13:51;100727.02;;;17.27;32.20
49801;BME280;35698;50.232;30.540;2023-04-29T06:14:54;100713.41;;;17.19;32.43
49801;BME280;35698;50.232;30.540;2023-04-29T06:15:57;100726.27;;;17.14;31.88
49801;BME280;35698;50.232;30.540;2023-04-29T06:17:19;100715.98;;;16.85;30.78
49801;BME280;35698;50.232;30.540;2023-04-29T06:18:30;100723.56;;;17.02;31.06
49801;BME280;35698;50.232;30.540;2023-04-29T06:19:33;100720.04;;;17.02;31.57
49801;BME280;35698;50.232;30.540;2023-04-29T06:20:36;100717.98;;;17.06;30.72
49801;BME280;35698;50.232;30.540;2023-04-29T06:21:57;100714.35;;;17.07;30.45
49801;BME280;35698;50.232;30.540;2023-04-29T06:23:09;100722.77;;;17.24;31.03
49801;BME280;35698;50.232;30.540;2023-04-29T06:24:12;100725.77;;;17.09;30.51
49801;BME280;35698;50.232;30.540;2023-04-29T06:25:23;100729.19;;;17.22;30.54
49801;BME280;35698;50.232;30.540;2023-04-29T06:26:27;100734.03;;;17.17;30.55
49801;BME280;35698;50.232;30.540;2023-04-29T06:27:33;100724.33;;;17.16;31.05
49801;BME280;35698;50.232;30.540;2023-04-29T06:28:54;100727.49;;;17.21;30.46
49801;BME280;35698;50.232;30.540;2023-04-29T06:30:06;100729.21;;;17.33;30.88
49801;BME280;35698;50.232;30.540;2023-04-29T06:31:10;100733.09;;;17.29;31.02
49801;BME280;35698;50.232;30.540;2023-04-29T06:32:21;100725.55;;;17.45;30.16
49801;BME280;35698;50.232;30.540;2023-04-29T06:33:24;100735.02;;;17.38;30.22
49801;BME280;35698;50.232;30.540;2023-04-29T06:34:28;100732.59;;;17.46;30.27
49801;BME280;35698;50.232;30.540;2023-04-29T06:35:49;100731.27;;;17.52;29.28
49801;BME280;35698;50.232;30.540;2023-04-29T06:37:01;100720.72;;;17.61;29.99
49801;BME280;35698;50.232;30.540;2023-04-29T06:38:04;100727.02;;;17.49;30.09
49801;BME280;35698;50.232;30.540;2023-04-29T06:39:07;100723.75;;;17.57;30.31